sensor_id;sensor_type;location;lat;lon;timestamp;P1;durP1;ratioP1;P2;durP2;ratioP2
76788;SDS011;65740;52.464;13.446;2023-11-21T00:01:53;18.40;;;17.20;;
76788;SDS011;65740;52.464;13.446;2023-11-21T00:04:19;17.57;;;16.47;;
76788;SDS011;65740;52.464;13.446;2023-11-21T00:06:45;17.90;;;16.80;;
76788;SDS011;65740;52.464;13.446;2023-11-21T00:09:12;17.93;;;16.77;;
76788;SDS011;65740;52.464;13.446;2023-11-21T00:11:40;17.80;;;16.70;;
76788;SDS011;65740;52.464;13.446;2023-11-21T00:14:06;18.17;;;17.07;;
76788;SDS011;65740;52.464;13.446;2023-11-21T00:16:33;17.50;;;16.50;;
76788;SDS011;65740;52.464;13.446;2023-11-21T00:18:59;17.40;;;16.47;;
76788;SDS011;65740;52.464;13.446;2023-11-21T00:21:24;17.37;;;16.43;;
76788;SDS011;65740;52.464;13.446;2023-11-21T00:23:50;18.07;;;16.97;;
76788;SDS011;65740;52.464;13.446;2023-11-21T00:26:16;17.47;;;16.37;;
76788;SDS011;65740;52.464;13.446;2023-11-21T00:28:42;17.83;;;16.70;;
76788;SDS011;65740;52.464;13.446;2023-11-21T00:31:07;17.40;;;16.17;;
76788;SDS011;65740;52.464;13.446;2023-11-21T00:33:33;17.13;;;16.13;;
76788;SDS011;65740;52.464;13.446;2023-11-21T00:35:58;17.40;;;16.40;;
76788;SDS011;65740;52.464;13.446;2023-11-21T00:38:25;17.40;;;16.30;;
76788;SDS011;65740;52.464;13.446;2023-11-21T00:40:52;17.20;;;16.17;;
76788;SDS011;65740;52.464;13.446;2023-11-21T00:43:20;16.77;;;15.87;;
76788;SDS011;65740;52.464;13.446;2023-11-21T00:45:47;16.73;;;15.73;;
76788;SDS011;65740;52.464;13.446;2023-11-21T00:48:14;17.53;;;16.53;;
76788;SDS011;65740;52.464;13.446;2023-11-21T00:50:40;17.30;;;16.40;;
76788;SDS011;65740;52.464;13.446;2023-11-21T00:53:05;17.37;;;16.47;;
76788;SDS011;65740;52.464;13.446;2023-11-21T00:55:32;17.40;;;16.50;;
76788;SDS011;65740;52.464;13.446;2023-11-21T00:57:58;18.10;;;17.00;;
76788;SDS011;65740;52.464;13.446;2023-11-21T01:00:24;17.10;;;16.03;;
76788;SDS011;65740;52.464;13.446;2023-11-21T01:02:50;17.20;;;16.20;;
76788;SDS011;65740;52.464;13.446;2023-11-21T01:05:16;17.30;;;16.30;;
76788;SDS011;65740;52.464;13.446;2023-11-21T01:07:42;17.67;;;16.67;;
76788;SDS011;65740;52.464;13.446;2023-11-21T01:10:08;18.57;;;17.50;;
76788;SDS011;65740;52.464;13.446;2023-11-21T01:12:35;17.70;;;16.70;;
76788;SDS011;65740;52.464;13.446;2023-11-21T01:15:02;17.77;;;16.87;;
76788;SDS011;65740;52.464;13.446;2023-11-21T01:17:32;17.53;;;16.33;;
76788;SDS011;65740;52.464;13.446;2023-11-21T01:19:59;17.50;;;16.60;;
76788;SDS011;65740;52.464;13.446;2023-11-21T01:22:25;17.67;;;16.77;;
76788;SDS011;65740;52.464;13.446;2023-11-21T01:24:52;19.27;;;18.00;;
76788;SDS011;65740;52.464;13.446;2023-11-21T01:27:18;17.93;;;16.83;;
76788;SDS011;65740;52.464;13.446;2023-11-21T01:29:44;17.43;;;16.43;;
76788;SDS011;65740;52.464;13.446;2023-11-21T01:32:09;17.87;;;16.87;;
76788;SDS011;65740;52.464;13.446;2023-11-21T01:34:35;17.60;;;16.70;;
76788;SDS011;65740;52.464;13.446;2023-11-21T01:37:01;18.20;;;17.20;;
76788;SDS011;65740;52.464;13.446;2023-11-21T01:39:29;17.40;;;16.40;;
76788;SDS011;65740;52.464;13.446;2023-11-21T01:41:55;18.30;;;17.30;;
76788;SDS011;65740;52.464;13.446;2023-11-21T01:44:23;17.20;;;16.20;;
76788;SDS011;65740;52.464;13.446;2023-11-21T01:46:49;18.57;;;17.50;;
76788;SDS011;65740;52.464;13.446;2023-11-21T01:49:16;17.90;;;16.80;;
76788;SDS011;65740;52.464;13.446;2023-11-21T01:51:43;18.17;;;17.17;;
76788;SDS011;65740;52.464;13.446;2023-11-21T01:54:14;17.60;;;16.60;;
76788;SDS011;65740;52.464;13.446;2023-11-21T01:56:42;18.47;;;17.37;;
76788;SDS011;65740;52.464;13.446;2023-11-21T01:59:10;18.83;;;17.80;;
76788;SDS011;65740;52.464;13.446;2023-11-21T02:01:39;18.30;;;17.20;;
76788;SDS011;65740;52.464;13.446;2023-11-21T02:04:05;18.30;;;17.30;;
76788;SDS011;65740;52.464;13.446;2023-11-21T02:06:32;18.40;;;17.30;;
76788;SDS011;65740;52.464;13.446;2023-11-21T02:08:59;18.37;;;17.27;;
76788;SDS011;65740;52.464;13.446;2023-11-21T02:11:24;18.77;;;17.47;;
76788;SDS011;65740;52.464;13.446;2023-11-21T02:13:50;19.67;;;18.50;;
76788;SDS011;65740;52.464;13.446;2023-11-21T02:16:19;18.10;;;17.00;;
76788;SDS011;65740;52.464;13.446;2023-11-21T02:18:46;18.30;;;17.00;;
76788;SDS011;65740;52.464;13.446;2023-11-21T02:21:13;18.90;;;17.70;;
76788;SDS011;65740;52.464;13.446;2023-11-21T02:23:39;18.70;;;17.60;;
76788;SDS011;65740;52.464;13.446;2023-11-21T02:26:09;18.73;;;17.60;;
76788;SDS011;65740;52.464;13.446;2023-11-21T02:28:35;18.43;;;17.33;;
76788;SDS011;65740;52.464;13.446;2023-11-21T02:31:01;19.20;;;18.10;;
76788;SDS011;65740;52.464;13.446;2023-11-21T02:33:29;18.47;;;17.40;;
76788;SDS011;65740;52.464;13.446;2023-11-21T02:35:58;19.37;;;18.17;;
76788;SDS011;65740;52.464;13.446;2023-11-21T02:38:24;19.03;;;17.93;;
76788;SDS011;65740;52.464;13.446;2023-11-21T02:40:50;18.60;;;17.50;;
76788;SDS011;65740;52.464;13.446;2023-11-21T02:43:16;18.60;;;17.33;;
76788;SDS011;65740;52.464;13.446;2023-11-21T02:45:41;18.70;;;17.60;;
76788;SDS011;65740;52.464;13.446;2023-11-21T02:48:07;19.10;;;18.00;;
76788;SDS011;65740;52.464;13.446;2023-11-21T02:50:33;19.63;;;18.40;;
76788;SDS011;65740;52.464;13.446;2023-11-21T02:53:00;19.53;;;18.37;;
76788;SDS011;65740;52.464;13.446;2023-11-21T02:55:26;18.63;;;17.53;;
76788;SDS011;65740;52.464;13.446;2023-11-21T02:57:52;19.10;;;18.00;;
76788;SDS011;65740;52.464;13.446;2023-11-21T03:00:18;19.67;;;18.47;;
76788;SDS011;65740;52.464;13.446;2023-11-21T03:02:44;19.70;;;18.50;;
76788;SDS011;65740;52.464;13.446;2023-11-21T03:05:12;19.20;;;18.00;;
76788;SDS011;65740;52.464;13.446;2023-11-21T03:07:38;18.93;;;17.83;;
76788;SDS011;65740;52.464;13.446;2023-11-21T03:10:05;19.07;;;17.97;;
76788;SDS011;65740;52.464;13.446;2023-11-21T03:12:31;19.10;;;17.90;;
76788;SDS011;65740;52.464;13.446;2023-11-21T03:14:57;19.50;;;18.30;;
76788;SDS011;65740;52.464;13.446;2023-11-21T03:17:23;18.80;;;17.67;;
76788;SDS011;65740;52.464;13.446;2023-11-21T03:19:49;19.27;;;18.07;;
76788;SDS011;65740;52.464;13.446;2023-11-21T03:22:15;19.10;;;18.00;;
76788;SDS011;65740;52.464;13.446;2023-11-21T03:24:40;18.93;;;17.73;;
76788;SDS011;65740;52.464;13.446;2023-11-21T03:27:06;18.93;;;17.73;;
76788;SDS011;65740;52.464;13.446;2023-11-21T03:29:32;18.60;;;17.50;;
76788;SDS011;65740;52.464;13.446;2023-11-21T03:31:58;19.37;;;18.17;;
76788;SDS011;65740;52.464;13.446;2023-11-21T03:34:24;18.77;;;17.70;;
76788;SDS011;65740;52.464;13.446;2023-11-21T03:36:51;18.50;;;17.43;;
76788;SDS011;65740;52.464;13.446;2023-11-21T03:39:17;19.17;;;18.07;;
76788;SDS011;65740;52.464;13.446;2023-11-21T03:41:44;18.80;;;17.60;;
76788;SDS011;65740;52.464;13.446;2023-11-21T03:44:10;20.07;;;18.87;;
76788;SDS011;65740;52.464;13.446;2023-11-21T03:46:35;18.53;;;17.43;;
76788;SDS011;65740;52.464;13.446;2023-11-21T03:49:01;18.63;;;17.43;;
76788;SDS011;65740;52.464;13.446;2023-11-21T03:51:26;18.17;;;17.07;;
76788;SDS011;65740;52.464;13.446;2023-11-21T03:53:52;18.90;;;17.57;;
76788;SDS011;65740;52.464;13.446;2023-11-21T03:56:18;19.27;;;18.07;;
76788;SDS011;65740;52.464;13.446;2023-11-21T03:58:46;18.90;;;17.80;;
76788;SDS011;65740;52.464;13.446;2023-11-21T04:01:18;18.73;;;17.50;;
76788;SDS011;65740;52.464;13.446;2023-11-21T04:03:47;19.60;;;18.30;;
76788;SDS011;65740;52.464;13.446;2023-11-21T04:06:15;18.93;;;17.83;;
76788;SDS011;65740;52.464;13.446;2023-11-21T04:08:42;19.30;;;18.10;;
76788;SDS011;65740;52.464;13.446;2023-11-21T04:11:11;19.03;;;17.87;;
76788;SDS011;65740;52.464;13.446;2023-11-21T04:13:37;19.20;;;18.10;;
76788;SDS011;65740;52.464;13.446;2023-11-21T04:16:05;18.90;;;17.73;;
76788;SDS011;65740;52.464;13.446;2023-11-21T04:18:31;19.20;;;18.10;;
76788;SDS011;65740;52.464;13.446;2023-11-21T04:20:58;19.23;;;18.03;;
76788;SDS011;65740;52.464;13.446;2023-11-21T04:23:24;18.50;;;17.50;;
76788;SDS011;65740;52.464;13.446;2023-11-21T04:25:50;18.67;;;17.67;;
76788;SDS011;65740;52.464;13.446;2023-11-21T04:28:15;19.00;;;17.80;;
76788;SDS011;65740;52.464;13.446;2023-11-21T04:30:41;18.63;;;17.63;;
76788;SDS011;65740;52.464;13.446;2023-11-21T04:33:07;18.10;;;17.10;;
76788;SDS011;65740;52.464;13.446;2023-11-21T04:35:32;18.70;;;17.70;;
76788;SDS011;65740;52.464;13.446;2023-11-21T04:37:58;17.40;;;16.40;;
76788;SDS011;65740;52.464;13.446;2023-11-21T04:40:24;18.93;;;17.73;;
76788;SDS011;65740;52.464;13.446;2023-11-21T04:42:52;18.40;;;17.30;;
76788;SDS011;65740;52.464;13.446;2023-11-21T04:45:17;17.80;;;16.80;;
76788;SDS011;65740;52.464;13.446;2023-11-21T04:47:43;18.20;;;17.10;;
76788;SDS011;65740;52.464;13.446;2023-11-21T04:50:08;17.80;;;16.80;;
76788;SDS011;65740;52.464;13.446;2023-11-21T04:52:34;17.77;;;16.77;;
76788;SDS011;65740;52.464;13.446;2023-11-21T04:55:00;18.33;;;17.23;;
76788;SDS011;65740;52.464;13.446;2023-11-21T04:57:27;18.90;;;17.80;;
76788;SDS011;65740;52.464;13.446;2023-11-21T04:59:53;18.80;;;17.70;;
76788;SDS011;65740;52.464;13.446;2023-11-21T05:02:19;18.20;;;17.10;;
76788;SDS011;65740;52.464;13.446;2023-11-21T05:04:46;18.40;;;17.43;;
76788;SDS011;65740;52.464;13.446;2023-11-21T05:07:12;17.93;;;17.03;;
76788;SDS011;65740;52.464;13.446;2023-11-21T05:09:41;18.40;;;17.40;;
76788;SDS011;65740;52.464;13.446;2023-11-21T05:12:09;18.50;;;17.40;;
76788;SDS011;65740;52.464;13.446;2023-11-21T05:14:35;18.83;;;17.73;;
76788;SDS011;65740;52.464;13.446;2023-11-21T05:17:00;19.40;;;18.20;;
76788;SDS011;65740;52.464;13.446;2023-11-21T05:19:26;18.43;;;17.40;;
76788;SDS011;65740;52.464;13.446;2023-11-21T05:21:52;18.10;;;17.10;;
76788;SDS011;65740;52.464;13.446;2023-11-21T05:24:17;17.90;;;17.00;;
76788;SDS011;65740;52.464;13.446;2023-11-21T05:26:43;18.57;;;17.57;;
76788;SDS011;65740;52.464;13.446;2023-11-21T05:29:08;18.37;;;17.40;;
76788;SDS011;65740;52.464;13.446;2023-11-21T05:31:35;18.40;;;17.20;;
76788;SDS011;65740;52.464;13.446;2023-11-21T05:34:01;18.13;;;16.97;;
76788;SDS011;65740;52.464;13.446;2023-11-21T05:36:28;18.13;;;17.17;;
76788;SDS011;65740;52.464;13.446;2023-11-21T05:38:53;18.50;;;17.50;;
76788;SDS011;65740;52.464;13.446;2023-11-21T05:41:19;18.63;;;17.63;;
76788;SDS011;65740;52.464;13.446;2023-11-21T05:43:45;17.80;;;16.70;;
76788;SDS011;65740;52.464;13.446;2023-11-21T05:46:10;18.63;;;17.53;;
76788;SDS011;65740;52.464;13.446;2023-11-21T05:48:36;18.50;;;17.50;;
76788;SDS011;65740;52.464;13.446;2023-11-21T05:51:05;18.63;;;17.50;;
76788;SDS011;65740;52.464;13.446;2023-11-21T05:53:31;17.77;;;16.87;;
76788;SDS011;65740;52.464;13.446;2023-11-21T05:55:57;17.90;;;16.90;;
76788;SDS011;65740;52.464;13.446;2023-11-21T05:58:22;19.30;;;18.20;;
76788;SDS011;65740;52.464;13.446;2023-11-21T06:00:48;17.93;;;16.93;;
76788;SDS011;65740;52.464;13.446;2023-11-21T06:03:14;17.37;;;16.53;;
76788;SDS011;65740;52.464;13.446;2023-11-21T06:05:40;17.93;;;16.90;;
76788;SDS011;65740;52.464;13.446;2023-11-21T06:10:35;18.00;;;17.00;;
76788;SDS011;65740;52.464;13.446;2023-11-21T06:13:01;17.97;;;17.07;;
76788;SDS011;65740;52.464;13.446;2023-11-21T06:15:28;17.37;;;16.47;;
76788;SDS011;65740;52.464;13.446;2023-11-21T06:17:54;18.33;;;17.33;;
76788;SDS011;65740;52.464;13.446;2023-11-21T06:20:21;18.00;;;17.10;;
76788;SDS011;65740;52.464;13.446;2023-11-21T06:22:48;18.40;;;17.40;;
76788;SDS011;65740;52.464;13.446;2023-11-21T06:25:16;17.73;;;16.83;;
76788;SDS011;65740;52.464;13.446;2023-11-21T06:27:43;20.40;;;19.30;;
76788;SDS011;65740;52.464;13.446;2023-11-21T06:30:10;19.37;;;18.37;;
76788;SDS011;65740;52.464;13.446;2023-11-21T06:32:37;19.87;;;18.87;;
76788;SDS011;65740;52.464;13.446;2023-11-21T06:35:04;20.80;;;19.70;;
76788;SDS011;65740;52.464;13.446;2023-11-21T06:37:31;19.77;;;18.77;;
76788;SDS011;65740;52.464;13.446;2023-11-21T06:39:57;20.10;;;19.00;;
76788;SDS011;65740;52.464;13.446;2023-11-21T06:42:24;19.67;;;18.77;;
76788;SDS011;65740;52.464;13.446;2023-11-21T06:44:50;20.90;;;19.90;;
76788;SDS011;65740;52.464;13.446;2023-11-21T06:47:21;19.93;;;19.03;;
76788;SDS011;65740;52.464;13.446;2023-11-21T06:49:49;19.67;;;18.57;;
76788;SDS011;65740;52.464;13.446;2023-11-21T06:52:15;19.60;;;18.60;;
76788;SDS011;65740;52.464;13.446;2023-11-21T06:54:41;20.03;;;19.00;;
76788;SDS011;65740;52.464;13.446;2023-11-21T06:57:07;19.77;;;18.67;;
76788;SDS011;65740;52.464;13.446;2023-11-21T06:59:33;20.40;;;19.30;;
76788;SDS011;65740;52.464;13.446;2023-11-21T07:01:58;20.47;;;19.47;;
76788;SDS011;65740;52.464;13.446;2023-11-21T07:04:24;20.80;;;19.70;;
76788;SDS011;65740;52.464;13.446;2023-11-21T07:06:53;20.77;;;19.77;;
76788;SDS011;65740;52.464;13.446;2023-11-21T07:09:19;19.10;;;18.10;;
76788;SDS011;65740;52.464;13.446;2023-11-21T07:11:48;19.37;;;18.43;;
76788;SDS011;65740;52.464;13.446;2023-11-21T07:14:15;20.13;;;19.13;;
76788;SDS011;65740;52.464;13.446;2023-11-21T07:16:42;19.10;;;18.20;;
76788;SDS011;65740;52.464;13.446;2023-11-21T07:19:07;19.27;;;18.17;;
76788;SDS011;65740;52.464;13.446;2023-11-21T07:21:33;19.70;;;18.60;;
76788;SDS011;65740;52.464;13.446;2023-11-21T07:24:00;20.47;;;19.37;;
76788;SDS011;65740;52.464;13.446;2023-11-21T07:26:28;20.53;;;19.33;;
76788;SDS011;65740;52.464;13.446;2023-11-21T07:29:01;19.23;;;18.30;;
76788;SDS011;65740;52.464;13.446;2023-11-21T07:31:28;21.10;;;19.83;;
76788;SDS011;65740;52.464;13.446;2023-11-21T07:33:54;19.20;;;18.30;;
76788;SDS011;65740;52.464;13.446;2023-11-21T07:36:22;20.43;;;19.00;;
76788;SDS011;65740;52.464;13.446;2023-11-21T07:38:48;20.10;;;19.10;;
76788;SDS011;65740;52.464;13.446;2023-11-21T07:41:15;20.17;;;19.10;;
76788;SDS011;65740;52.464;13.446;2023-11-21T07:43:47;19.53;;;18.53;;
76788;SDS011;65740;52.464;13.446;2023-11-21T07:46:13;19.10;;;18.00;;
76788;SDS011;65740;52.464;13.446;2023-11-21T07:48:39;19.03;;;18.03;;
76788;SDS011;65740;52.464;13.446;2023-11-21T07:51:07;18.73;;;17.73;;
76788;SDS011;65740;52.464;13.446;2023-11-21T07:53:33;18.13;;;17.23;;
76788;SDS011;65740;52.464;13.446;2023-11-21T07:56:02;18.97;;;17.87;;
76788;SDS011;65740;52.464;13.446;2023-11-21T07:58:29;19.70;;;18.63;;
76788;SDS011;65740;52.464;13.446;2023-11-21T08:00:55;19.40;;;18.30;;
76788;SDS011;65740;52.464;13.446;2023-11-21T08:03:20;18.23;;;17.43;;
76788;SDS011;65740;52.464;13.446;2023-11-21T08:05:46;19.13;;;18.20;;
76788;SDS011;65740;52.464;13.446;2023-11-21T08:08:12;19.10;;;18.10;;
76788;SDS011;65740;52.464;13.446;2023-11-21T08:10:38;19.27;;;18.27;;
76788;SDS011;65740;52.464;13.446;2023-11-21T08:13:07;19.03;;;18.03;;
76788;SDS011;65740;52.464;13.446;2023-11-21T08:15:34;19.10;;;18.10;;
76788;SDS011;65740;52.464;13.446;2023-11-21T08:18:01;19.30;;;18.30;;
76788;SDS011;65740;52.464;13.446;2023-11-21T08:20:27;18.30;;;17.30;;
76788;SDS011;65740;52.464;13.446;2023-11-21T08:22:53;18.90;;;17.90;;
76788;SDS011;65740;52.464;13.446;2023-11-21T08:25:20;19.10;;;18.00;;
76788;SDS011;65740;52.464;13.446;2023-11-21T08:27:46;18.20;;;17.10;;
76788;SDS011;65740;52.464;13.446;2023-11-21T08:30:11;18.07;;;16.97;;
76788;SDS011;65740;52.464;13.446;2023-11-21T08:32:39;18.40;;;17.50;;
76788;SDS011;65740;52.464;13.446;2023-11-21T08:35:07;18.60;;;17.60;;
76788;SDS011;65740;52.464;13.446;2023-11-21T08:37:33;18.20;;;17.17;;
76788;SDS011;65740;52.464;13.446;2023-11-21T08:40:02;17.97;;;17.07;;
76788;SDS011;65740;52.464;13.446;2023-11-21T08:42:29;27.33;;;18.60;;
76788;SDS011;65740;52.464;13.446;2023-11-21T08:44:55;18.43;;;17.30;;
76788;SDS011;65740;52.464;13.446;2023-11-21T08:47:22;18.50;;;17.40;;
76788;SDS011;65740;52.464;13.446;2023-11-21T08:49:49;18.37;;;17.30;;
76788;SDS011;65740;52.464;13.446;2023-11-21T08:52:18;18.47;;;17.30;;
76788;SDS011;65740;52.464;13.446;2023-11-21T08:54:49;17.77;;;16.77;;
76788;SDS011;65740;52.464;13.446;2023-11-21T08:57:24;20.57;;;18.83;;
76788;SDS011;65740;52.464;13.446;2023-11-21T08:59:50;18.13;;;17.03;;
76788;SDS011;65740;52.464;13.446;2023-11-21T09:02:20;18.03;;;16.80;;
76788;SDS011;65740;52.464;13.446;2023-11-21T09:04:51;18.63;;;17.63;;
76788;SDS011;65740;52.464;13.446;2023-11-21T09:07:20;18.37;;;17.23;;
76788;SDS011;65740;52.464;13.446;2023-11-21T09:09:49;18.17;;;17.20;;
76788;SDS011;65740;52.464;13.446;2023-11-21T09:12:15;18.37;;;17.47;;
76788;SDS011;65740;52.464;13.446;2023-11-21T09:14:42;18.47;;;17.27;;
76788;SDS011;65740;52.464;13.446;2023-11-21T09:17:09;19.20;;;18.10;;
76788;SDS011;65740;52.464;13.446;2023-11-21T09:19:37;18.57;;;17.47;;
76788;SDS011;65740;52.464;13.446;2023-11-21T09:22:03;19.33;;;18.20;;
76788;SDS011;65740;52.464;13.446;2023-11-21T09:24:30;19.33;;;18.03;;
76788;SDS011;65740;52.464;13.446;2023-11-21T09:26:56;18.87;;;17.70;;
76788;SDS011;65740;52.464;13.446;2023-11-21T09:29:21;18.53;;;17.30;;
76788;SDS011;65740;52.464;13.446;2023-11-21T09:31:47;18.80;;;17.60;;
76788;SDS011;65740;52.464;13.446;2023-11-21T09:34:14;17.90;;;16.90;;
76788;SDS011;65740;52.464;13.446;2023-11-21T09:36:40;18.57;;;17.57;;
76788;SDS011;65740;52.464;13.446;2023-11-21T09:39:06;19.47;;;18.27;;
76788;SDS011;65740;52.464;13.446;2023-11-21T09:41:36;18.83;;;17.43;;
76788;SDS011;65740;52.464;13.446;2023-11-21T09:44:09;18.57;;;17.43;;
76788;SDS011;65740;52.464;13.446;2023-11-21T09:46:39;18.67;;;17.57;;
76788;SDS011;65740;52.464;13.446;2023-11-21T09:49:07;18.17;;;17.27;;
76788;SDS011;65740;52.464;13.446;2023-11-21T09:51:39;20.20;;;18.10;;
76788;SDS011;65740;52.464;13.446;2023-11-21T09:54:07;21.23;;;17.90;;
76788;SDS011;65740;52.464;13.446;2023-11-21T09:56:37;18.63;;;17.23;;
76788;SDS011;65740;52.464;13.446;2023-11-21T09:59:03;19.10;;;17.80;;
76788;SDS011;65740;52.464;13.446;2023-11-21T10:01:32;18.97;;;17.40;;
76788;SDS011;65740;52.464;13.446;2023-11-21T10:04:00;19.83;;;18.00;;
76788;SDS011;65740;52.464;13.446;2023-11-21T10:06:26;19.60;;;17.70;;
76788;SDS011;65740;52.464;13.446;2023-11-21T10:08:54;18.83;;;17.00;;
76788;SDS011;65740;52.464;13.446;2023-11-21T10:11:23;17.63;;;16.53;;
76788;SDS011;65740;52.464;13.446;2023-11-21T10:13:54;18.90;;;17.20;;
76788;SDS011;65740;52.464;13.446;2023-11-21T10:16:22;19.60;;;17.80;;
76788;SDS011;65740;52.464;13.446;2023-11-21T10:18:52;17.93;;;16.60;;
76788;SDS011;65740;52.464;13.446;2023-11-21T10:21:21;17.87;;;16.50;;
76788;SDS011;65740;52.464;13.446;2023-11-21T10:23:47;18.63;;;17.43;;
76788;SDS011;65740;52.464;13.446;2023-11-21T10:26:13;19.30;;;17.80;;
76788;SDS011;65740;52.464;13.446;2023-11-21T10:28:41;18.77;;;17.37;;
76788;SDS011;65740;52.464;13.446;2023-11-21T10:31:20;18.90;;;17.40;;
76788;SDS011;65740;52.464;13.446;2023-11-21T10:33:46;18.40;;;17.10;;
76788;SDS011;65740;52.464;13.446;2023-11-21T10:36:12;19.57;;;17.57;;
76788;SDS011;65740;52.464;13.446;2023-11-21T10:38:47;19.20;;;17.33;;
76788;SDS011;65740;52.464;13.446;2023-11-21T10:41:17;17.57;;;16.37;;
76788;SDS011;65740;52.464;13.446;2023-11-21T10:43:43;19.80;;;17.93;;
76788;SDS011;65740;52.464;13.446;2023-11-21T10:46:09;18.43;;;17.00;;
76788;SDS011;65740;52.464;13.446;2023-11-21T10:48:35;18.87;;;17.67;;
76788;SDS011;65740;52.464;13.446;2023-11-21T10:51:01;19.33;;;17.70;;
76788;SDS011;65740;52.464;13.446;2023-11-21T10:53:39;19.37;;;17.83;;
76788;SDS011;65740;52.464;13.446;2023-11-21T10:56:08;21.27;;;17.43;;
76788;SDS011;65740;52.464;13.446;2023-11-21T10:58:36;18.30;;;17.20;;
76788;SDS011;65740;52.464;13.446;2023-11-21T11:01:04;19.00;;;17.43;;
76788;SDS011;65740;52.464;13.446;2023-11-21T11:03:32;18.53;;;17.40;;
76788;SDS011;65740;52.464;13.446;2023-11-21T11:06:01;17.93;;;16.93;;
76788;SDS011;65740;52.464;13.446;2023-11-21T11:08:28;18.50;;;17.20;;
76788;SDS011;65740;52.464;13.446;2023-11-21T11:10:54;19.13;;;17.93;;
76788;SDS011;65740;52.464;13.446;2023-11-21T11:13:20;19.23;;;17.90;;
76788;SDS011;65740;52.464;13.446;2023-11-21T11:15:47;18.97;;;17.67;;
76788;SDS011;65740;52.464;13.446;2023-11-21T11:18:14;17.47;;;16.40;;
76788;SDS011;65740;52.464;13.446;2023-11-21T11:20:41;18.47;;;17.23;;
76788;SDS011;65740;52.464;13.446;2023-11-21T11:35:03;17.63;;;16.47;;
76788;SDS011;65740;52.464;13.446;2023-11-21T11:37:35;17.23;;;16.13;;
76788;SDS011;65740;52.464;13.446;2023-11-21T11:40:01;17.70;;;16.50;;
76788;SDS011;65740;52.464;13.446;2023-11-21T11:42:32;18.60;;;17.60;;
76788;SDS011;65740;52.464;13.446;2023-11-21T11:44:57;17.93;;;16.73;;
76788;SDS011;65740;52.464;13.446;2023-11-21T11:52:34;17.67;;;16.20;;
76788;SDS011;65740;52.464;13.446;2023-11-21T11:55:04;16.20;;;15.20;;
76788;SDS011;65740;52.464;13.446;2023-11-21T11:57:32;17.37;;;16.13;;
76788;SDS011;65740;52.464;13.446;2023-11-21T12:02:46;18.70;;;17.20;;
76788;SDS011;65740;52.464;13.446;2023-11-21T12:05:14;17.80;;;16.63;;
76788;SDS011;65740;52.464;13.446;2023-11-21T12:07:50;17.43;;;15.93;;
76788;SDS011;65740;52.464;13.446;2023-11-21T12:10:27;25.27;;;22.60;;
76788;SDS011;65740;52.464;13.446;2023-11-21T12:12:57;23.93;;;21.57;;
76788;SDS011;65740;52.464;13.446;2023-11-21T12:15:24;36.00;;;24.27;;
76788;SDS011;65740;52.464;13.446;2023-11-21T12:17:50;30.60;;;24.63;;
76788;SDS011;65740;52.464;13.446;2023-11-21T12:20:23;34.40;;;25.90;;
76788;SDS011;65740;52.464;13.446;2023-11-21T12:22:50;35.93;;;27.27;;
76788;SDS011;65740;52.464;13.446;2023-11-21T12:25:24;28.30;;;25.50;;
76788;SDS011;65740;52.464;13.446;2023-11-21T12:27:54;31.37;;;26.60;;
76788;SDS011;65740;52.464;13.446;2023-11-21T12:30:21;27.83;;;25.23;;
76788;SDS011;65740;52.464;13.446;2023-11-21T12:32:52;35.37;;;27.13;;
76788;SDS011;65740;52.464;13.446;2023-11-21T12:35:19;41.03;;;28.27;;
76788;SDS011;65740;52.464;13.446;2023-11-21T12:37:49;40.53;;;28.77;;
76788;SDS011;65740;52.464;13.446;2023-11-21T12:40:16;40.37;;;30.53;;
76788;SDS011;65740;52.464;13.446;2023-11-21T12:42:42;40.03;;;30.73;;
76788;SDS011;65740;52.464;13.446;2023-11-21T12:47:45;37.27;;;30.87;;
76788;SDS011;65740;52.464;13.446;2023-11-21T12:50:14;42.00;;;30.50;;
76788;SDS011;65740;52.464;13.446;2023-11-21T12:52:45;42.33;;;30.90;;
76788;SDS011;65740;52.464;13.446;2023-11-21T12:55:17;37.87;;;29.53;;
76788;SDS011;65740;52.464;13.446;2023-11-21T12:57:54;34.00;;;28.87;;
76788;SDS011;65740;52.464;13.446;2023-11-21T13:01:06;34.53;;;29.17;;
76788;SDS011;65740;52.464;13.446;2023-11-21T13:03:11;35.70;;;29.07;;
76788;SDS011;65740;52.464;13.446;2023-11-21T13:05:42;34.73;;;29.10;;
76788;SDS011;65740;52.464;13.446;2023-11-21T13:08:10;33.47;;;28.27;;
76788;SDS011;65740;52.464;13.446;2023-11-21T13:10:38;30.23;;;26.83;;
76788;SDS011;65740;52.464;13.446;2023-11-21T13:13:07;31.57;;;27.97;;
76788;SDS011;65740;52.464;13.446;2023-11-21T13:16:20;29.77;;;26.90;;
76788;SDS011;65740;52.464;13.446;2023-11-21T13:18:30;29.30;;;26.10;;
76788;SDS011;65740;52.464;13.446;2023-11-21T13:20:59;37.93;;;27.43;;
76788;SDS011;65740;52.464;13.446;2023-11-21T13:23:27;28.30;;;25.57;;
76788;SDS011;65740;52.464;13.446;2023-11-21T13:25:54;28.63;;;25.90;;
76788;SDS011;65740;52.464;13.446;2023-11-21T13:28:20;28.67;;;25.40;;
76788;SDS011;65740;52.464;13.446;2023-11-21T13:30:49;27.33;;;24.63;;
76788;SDS011;65740;52.464;13.446;2023-11-21T13:33:17;26.73;;;24.47;;
76788;SDS011;65740;52.464;13.446;2023-11-21T13:35:47;27.73;;;25.03;;
76788;SDS011;65740;52.464;13.446;2023-11-21T13:38:15;28.23;;;25.37;;
76788;SDS011;65740;52.464;13.446;2023-11-21T13:40:49;25.23;;;23.13;;
76788;SDS011;65740;52.464;13.446;2023-11-21T13:43:19;25.73;;;23.13;;
76788;SDS011;65740;52.464;13.446;2023-11-21T13:45:49;26.13;;;22.40;;
76788;SDS011;65740;52.464;13.446;2023-11-21T13:48:20;27.60;;;24.67;;
76788;SDS011;65740;52.464;13.446;2023-11-21T13:50:53;25.90;;;22.00;;
76788;SDS011;65740;52.464;13.446;2023-11-21T13:53:35;27.30;;;21.77;;
76788;SDS011;65740;52.464;13.446;2023-11-21T13:56:04;25.80;;;22.60;;
76788;SDS011;65740;52.464;13.446;2023-11-21T13:58:30;23.93;;;21.53;;
76788;SDS011;65740;52.464;13.446;2023-11-21T14:01:11;26.13;;;21.70;;
76788;SDS011;65740;52.464;13.446;2023-11-21T14:03:55;23.43;;;21.33;;
76788;SDS011;65740;52.464;13.446;2023-11-21T14:06:44;22.53;;;20.57;;
76788;SDS011;65740;52.464;13.446;2023-11-21T14:09:14;22.03;;;19.83;;
76788;SDS011;65740;52.464;13.446;2023-11-21T14:14:21;23.40;;;20.70;;
76788;SDS011;65740;52.464;13.446;2023-11-21T14:16:50;22.60;;;20.27;;
76788;SDS011;65740;52.464;13.446;2023-11-21T14:19:16;22.70;;;20.70;;
76788;SDS011;65740;52.464;13.446;2023-11-21T14:21:42;22.10;;;20.40;;
76788;SDS011;65740;52.464;13.446;2023-11-21T14:24:09;21.20;;;19.17;;
76788;SDS011;65740;52.464;13.446;2023-11-21T14:26:35;22.00;;;19.90;;
76788;SDS011;65740;52.464;13.446;2023-11-21T14:29:00;22.03;;;20.00;;
76788;SDS011;65740;52.464;13.446;2023-11-21T14:31:27;20.03;;;18.63;;
76788;SDS011;65740;52.464;13.446;2023-11-21T14:33:55;21.07;;;19.47;;
76788;SDS011;65740;52.464;13.446;2023-11-21T14:36:22;20.97;;;19.20;;
76788;SDS011;65740;52.464;13.446;2023-11-21T14:38:49;19.93;;;18.03;;